sensor_id;sensor_type;location;lat;lon;timestamp;P1;durP1;ratioP1;P2;durP2;ratioP2
75446;SDS011;64024;55.820;37.574;2023-02-14T00:02:09;3.42;;;3.00;;
75446;SDS011;64024;55.820;37.574;2023-02-14T00:04:34;3.38;;;2.30;;
75446;SDS011;64024;55.820;37.574;2023-02-14T00:07:02;3.28;;;2.55;;
75446;SDS011;64024;55.820;37.574;2023-02-14T00:09:29;2.45;;;2.13;;
75446;SDS011;64024;55.820;37.574;2023-02-14T00:11:55;3.38;;;2.00;;
75446;SDS011;64024;55.820;37.574;2023-02-14T00:14:21;2.47;;;1.92;;
75446;SDS011;64024;55.820;37.574;2023-02-14T00:17:05;2.78;;;2.08;;
75446;SDS011;64024;55.820;37.574;2023-02-14T00:19:30;2.97;;;2.20;;
75446;SDS011;64024;55.820;37.574;2023-02-14T00:21:58;3.40;;;2.95;;
75446;SDS011;64024;55.820;37.574;2023-02-14T00:24:24;2.83;;;2.53;;
75446;SDS011;64024;55.820;37.574;2023-02-14T00:26:51;3.25;;;2.13;;
75446;SDS011;64024;55.820;37.574;2023-02-14T00:29:18;3.45;;;2.40;;
75446;SDS011;64024;55.820;37.574;2023-02-14T00:31:46;2.85;;;2.55;;
75446;SDS011;64024;55.820;37.574;2023-02-14T00:34:12;3.40;;;3.03;;
75446;SDS011;64024;55.820;37.574;2023-02-14T00:36:39;2.83;;;2.22;;
75446;SDS011;64024;55.820;37.574;2023-02-14T00:39:05;3.92;;;2.55;;
75446;SDS011;64024;55.820;37.574;2023-02-14T00:41:32;3.97;;;2.95;;
75446;SDS011;64024;55.820;37.574;2023-02-14T00:43:58;3.35;;;2.67;;
75446;SDS011;64024;55.820;37.574;2023-02-14T00:46:24;4.68;;;2.60;;
75446;SDS011;64024;55.820;37.574;2023-02-14T00:48:50;4.43;;;2.33;;
75446;SDS011;64024;55.820;37.574;2023-02-14T00:51:17;2.58;;;2.13;;
75446;SDS011;64024;55.820;37.574;2023-02-14T00:53:43;3.03;;;2.28;;
75446;SDS011;64024;55.820;37.574;2023-02-14T00:56:11;3.75;;;2.85;;
75446;SDS011;64024;55.820;37.574;2023-02-14T00:58:38;3.60;;;2.65;;
75446;SDS011;64024;55.820;37.574;2023-02-14T01:01:04;5.22;;;2.95;;
75446;SDS011;64024;55.820;37.574;2023-02-14T01:03:29;4.03;;;2.35;;
75446;SDS011;64024;55.820;37.574;2023-02-14T01:05:55;3.75;;;2.50;;
75446;SDS011;64024;55.820;37.574;2023-02-14T01:08:21;3.05;;;2.53;;
75446;SDS011;64024;55.820;37.574;2023-02-14T01:10:46;3.15;;;2.35;;
75446;SDS011;64024;55.820;37.574;2023-02-14T01:13:12;4.20;;;2.65;;
75446;SDS011;64024;55.820;37.574;2023-02-14T01:15:43;3.50;;;2.42;;
75446;SDS011;64024;55.820;37.574;2023-02-14T01:18:11;3.42;;;2.83;;
75446;SDS011;64024;55.820;37.574;2023-02-14T01:20:36;3.75;;;2.53;;
75446;SDS011;64024;55.820;37.574;2023-02-14T01:23:02;3.88;;;3.15;;
75446;SDS011;64024;55.820;37.574;2023-02-14T01:25:28;3.35;;;2.58;;
75446;SDS011;64024;55.820;37.574;2023-02-14T01:27:53;3.00;;;2.38;;
75446;SDS011;64024;55.820;37.574;2023-02-14T01:30:19;3.22;;;2.45;;
75446;SDS011;64024;55.820;37.574;2023-02-14T01:32:46;3.13;;;1.98;;
75446;SDS011;64024;55.820;37.574;2023-02-14T01:35:11;3.67;;;2.60;;
75446;SDS011;64024;55.820;37.574;2023-02-14T01:37:37;2.67;;;1.90;;
75446;SDS011;64024;55.820;37.574;2023-02-14T01:40:03;2.75;;;2.45;;
75446;SDS011;64024;55.820;37.574;2023-02-14T01:42:32;2.67;;;2.03;;
75446;SDS011;64024;55.820;37.574;2023-02-14T01:47:35;2.55;;;1.85;;
75446;SDS011;64024;55.820;37.574;2023-02-14T01:50:08;6.25;;;3.08;;
75446;SDS011;64024;55.820;37.574;2023-02-14T01:52:46;3.28;;;2.17;;
75446;SDS011;64024;55.820;37.574;2023-02-14T01:55:18;3.95;;;2.13;;
75446;SDS011;64024;55.820;37.574;2023-02-14T01:57:52;2.85;;;2.38;;
75446;SDS011;64024;55.820;37.574;2023-02-14T02:00:23;4.10;;;2.58;;
75446;SDS011;64024;55.820;37.574;2023-02-14T02:03:08;2.80;;;2.10;;
75446;SDS011;64024;55.820;37.574;2023-02-14T02:05:37;2.25;;;1.80;;
75446;SDS011;64024;55.820;37.574;2023-02-14T02:08:06;2.85;;;2.25;;
75446;SDS011;64024;55.820;37.574;2023-02-14T02:10:31;4.05;;;2.60;;
75446;SDS011;64024;55.820;37.574;2023-02-14T02:12:58;3.47;;;2.80;;
75446;SDS011;64024;55.820;37.574;2023-02-14T02:15:27;2.95;;;2.45;;
75446;SDS011;64024;55.820;37.574;2023-02-14T02:18:00;3.08;;;2.33;;
75446;SDS011;64024;55.820;37.574;2023-02-14T02:46:21;3.03;;;2.08;;
75446;SDS011;64024;55.820;37.574;2023-02-14T02:49:15;2.45;;;2.08;;
75446;SDS011;64024;55.820;37.574;2023-02-14T02:52:19;2.95;;;1.90;;
75446;SDS011;64024;55.820;37.574;2023-02-14T02:55:18;4.60;;;2.08;;
75446;SDS011;64024;55.820;37.574;2023-02-14T02:57:48;2.53;;;2.00;;
75446;SDS011;64024;55.820;37.574;2023-02-14T03:00:17;2.33;;;1.90;;
75446;SDS011;64024;55.820;37.574;2023-02-14T03:02:47;3.38;;;2.40;;
75446;SDS011;64024;55.820;37.574;2023-02-14T03:05:34;3.30;;;1.95;;
75446;SDS011;64024;55.820;37.574;2023-02-14T03:08:01;2.65;;;2.03;;
75446;SDS011;64024;55.820;37.574;2023-02-14T03:10:32;2.50;;;1.67;;
75446;SDS011;64024;55.820;37.574;2023-02-14T03:15:50;3.22;;;2.00;;
75446;SDS011;64024;55.820;37.574;2023-02-14T03:18:33;2.60;;;2.30;;
75446;SDS011;64024;55.820;37.574;2023-02-14T03:21:25;3.03;;;2.30;;
75446;SDS011;64024;55.820;37.574;2023-02-14T03:26:34;3.38;;;2.25;;
75446;SDS011;64024;55.820;37.574;2023-02-14T03:29:10;4.70;;;2.38;;
75446;SDS011;64024;55.820;37.574;2023-02-14T03:34:24;3.55;;;2.53;;
75446;SDS011;64024;55.820;37.574;2023-02-14T03:45:15;2.33;;;1.88;;
75446;SDS011;64024;55.820;37.574;2023-02-14T03:47:46;2.70;;;2.30;;
75446;SDS011;64024;55.820;37.574;2023-02-14T03:50:16;2.90;;;2.20;;
75446;SDS011;64024;55.820;37.574;2023-02-14T03:52:43;3.55;;;2.00;;
75446;SDS011;64024;55.820;37.574;2023-02-14T03:55:14;3.08;;;1.92;;
75446;SDS011;64024;55.820;37.574;2023-02-14T03:57:48;3.90;;;2.55;;
75446;SDS011;64024;55.820;37.574;2023-02-14T04:00:21;4.20;;;2.20;;
75446;SDS011;64024;55.820;37.574;2023-02-14T04:02:48;3.10;;;2.03;;
75446;SDS011;64024;55.820;37.574;2023-02-14T04:05:20;2.55;;;1.73;;
75446;SDS011;64024;55.820;37.574;2023-02-14T04:07:53;2.25;;;1.70;;
75446;SDS011;64024;55.820;37.574;2023-02-14T04:10:21;3.15;;;1.98;;
75446;SDS011;64024;55.820;37.574;2023-02-14T04:12:47;3.00;;;1.90;;
75446;SDS011;64024;55.820;37.574;2023-02-14T04:15:14;4.07;;;1.75;;
75446;SDS011;64024;55.820;37.574;2023-02-14T04:17:43;2.42;;;1.65;;
75446;SDS011;64024;55.820;37.574;2023-02-14T04:20:28;3.72;;;2.20;;
75446;SDS011;64024;55.820;37.574;2023-02-14T04:22:54;3.05;;;2.00;;
75446;SDS011;64024;55.820;37.574;2023-02-14T04:25:20;2.97;;;1.98;;
75446;SDS011;64024;55.820;37.574;2023-02-14T04:27:46;2.25;;;1.73;;
75446;SDS011;64024;55.820;37.574;2023-02-14T04:30:12;2.60;;;1.95;;
75446;SDS011;64024;55.820;37.574;2023-02-14T04:32:39;2.10;;;1.48;;
75446;SDS011;64024;55.820;37.574;2023-02-14T04:35:05;3.15;;;1.73;;
75446;SDS011;64024;55.820;37.574;2023-02-14T04:37:32;2.42;;;1.60;;
75446;SDS011;64024;55.820;37.574;2023-02-14T04:39:58;3.00;;;1.90;;
75446;SDS011;64024;55.820;37.574;2023-02-14T04:42:24;2.47;;;1.60;;
75446;SDS011;64024;55.820;37.574;2023-02-14T04:44:49;2.92;;;1.52;;
75446;SDS011;64024;55.820;37.574;2023-02-14T04:47:15;2.90;;;1.60;;
75446;SDS011;64024;55.820;37.574;2023-02-14T04:49:41;2.08;;;1.58;;
75446;SDS011;64024;55.820;37.574;2023-02-14T04:52:06;3.45;;;1.80;;
75446;SDS011;64024;55.820;37.574;2023-02-14T04:54:32;2.63;;;1.75;;
75446;SDS011;64024;55.820;37.574;2023-02-14T04:56:58;2.20;;;1.50;;
75446;SDS011;64024;55.820;37.574;2023-02-14T04:59:23;2.10;;;1.42;;
75446;SDS011;64024;55.820;37.574;2023-02-14T05:01:49;3.78;;;2.38;;
75446;SDS011;64024;55.820;37.574;2023-02-14T05:04:15;2.97;;;1.73;;
75446;SDS011;64024;55.820;37.574;2023-02-14T05:06:40;1.77;;;1.30;;
75446;SDS011;64024;55.820;37.574;2023-02-14T05:09:06;2.08;;;1.63;;
75446;SDS011;64024;55.820;37.574;2023-02-14T05:11:31;2.33;;;1.52;;
75446;SDS011;64024;55.820;37.574;2023-02-14T05:13:57;2.22;;;1.60;;
75446;SDS011;64024;55.820;37.574;2023-02-14T05:16:23;2.53;;;1.88;;
75446;SDS011;64024;55.820;37.574;2023-02-14T05:18:48;2.65;;;1.83;;
75446;SDS011;64024;55.820;37.574;2023-02-14T05:21:14;3.05;;;1.88;;
75446;SDS011;64024;55.820;37.574;2023-02-14T05:23:40;2.53;;;1.27;;
75446;SDS011;64024;55.820;37.574;2023-02-14T05:26:05;3.05;;;2.38;;
75446;SDS011;64024;55.820;37.574;2023-02-14T05:28:31;3.08;;;1.83;;
75446;SDS011;64024;55.820;37.574;2023-02-14T05:30:57;2.95;;;2.00;;
75446;SDS011;64024;55.820;37.574;2023-02-14T05:33:23;2.47;;;1.58;;
75446;SDS011;64024;55.820;37.574;2023-02-14T05:35:49;2.50;;;1.50;;
75446;SDS011;64024;55.820;37.574;2023-02-14T05:38:17;2.45;;;1.92;;
75446;SDS011;64024;55.820;37.574;2023-02-14T05:40:43;2.60;;;1.52;;
75446;SDS011;64024;55.820;37.574;2023-02-14T05:43:09;2.80;;;1.80;;
75446;SDS011;64024;55.820;37.574;2023-02-14T05:45:35;2.35;;;1.95;;
75446;SDS011;64024;55.820;37.574;2023-02-14T05:48:00;2.38;;;1.58;;
75446;SDS011;64024;55.820;37.574;2023-02-14T05:50:26;2.65;;;1.52;;
75446;SDS011;64024;55.820;37.574;2023-02-14T05:52:52;1.73;;;1.17;;
75446;SDS011;64024;55.820;37.574;2023-02-14T05:55:18;2.15;;;1.40;;
75446;SDS011;64024;55.820;37.574;2023-02-14T05:57:43;2.60;;;2.00;;
75446;SDS011;64024;55.820;37.574;2023-02-14T06:00:09;3.45;;;1.35;;
75446;SDS011;64024;55.820;37.574;2023-02-14T06:02:35;2.38;;;1.48;;
75446;SDS011;64024;55.820;37.574;2023-02-14T06:05:00;2.17;;;1.27;;
75446;SDS011;64024;55.820;37.574;2023-02-14T06:07:26;2.92;;;1.67;;
75446;SDS011;64024;55.820;37.574;2023-02-14T06:09:52;1.63;;;1.17;;
75446;SDS011;64024;55.820;37.574;2023-02-14T06:12:17;2.80;;;1.67;;
75446;SDS011;64024;55.820;37.574;2023-02-14T06:14:43;3.08;;;1.50;;
75446;SDS011;64024;55.820;37.574;2023-02-14T06:17:09;2.60;;;1.83;;
75446;SDS011;64024;55.820;37.574;2023-02-14T06:19:35;2.60;;;1.98;;
75446;SDS011;64024;55.820;37.574;2023-02-14T06:22:00;3.53;;;1.83;;
75446;SDS011;64024;55.820;37.574;2023-02-14T06:24:26;3.25;;;2.03;;
75446;SDS011;64024;55.820;37.574;2023-02-14T06:26:52;3.35;;;2.28;;
75446;SDS011;64024;55.820;37.574;2023-02-14T06:29:17;2.80;;;1.60;;
75446;SDS011;64024;55.820;37.574;2023-02-14T06:31:43;2.88;;;1.80;;
75446;SDS011;64024;55.820;37.574;2023-02-14T06:34:09;2.90;;;1.75;;
75446;SDS011;64024;55.820;37.574;2023-02-14T06:36:34;4.72;;;2.45;;
75446;SDS011;64024;55.820;37.574;2023-02-14T06:39:01;3.03;;;1.98;;
75446;SDS011;64024;55.820;37.574;2023-02-14T06:41:27;3.97;;;1.95;;
75446;SDS011;64024;55.820;37.574;2023-02-14T06:43:52;3.65;;;2.03;;
75446;SDS011;64024;55.820;37.574;2023-02-14T06:46:18;3.35;;;2.20;;
75446;SDS011;64024;55.820;37.574;2023-02-14T06:48:44;2.92;;;1.42;;
75446;SDS011;64024;55.820;37.574;2023-02-14T06:51:10;2.45;;;1.60;;
75446;SDS011;64024;55.820;37.574;2023-02-14T06:53:36;2.63;;;1.90;;
75446;SDS011;64024;55.820;37.574;2023-02-14T06:56:01;2.55;;;1.98;;
75446;SDS011;64024;55.820;37.574;2023-02-14T06:58:27;4.05;;;1.73;;
75446;SDS011;64024;55.820;37.574;2023-02-14T07:00:56;3.88;;;1.90;;
75446;SDS011;64024;55.820;37.574;2023-02-14T07:03:23;3.55;;;2.15;;
75446;SDS011;64024;55.820;37.574;2023-02-14T07:05:52;3.10;;;1.60;;
75446;SDS011;64024;55.820;37.574;2023-02-14T07:08:18;2.50;;;1.77;;
75446;SDS011;64024;55.820;37.574;2023-02-14T07:10:44;3.25;;;1.90;;
75446;SDS011;64024;55.820;37.574;2023-02-14T07:13:10;2.95;;;1.73;;
75446;SDS011;64024;55.820;37.574;2023-02-14T07:15:35;2.65;;;1.70;;
75446;SDS011;64024;55.820;37.574;2023-02-14T07:18:01;2.03;;;1.77;;
75446;SDS011;64024;55.820;37.574;2023-02-14T07:20:27;2.75;;;1.65;;
75446;SDS011;64024;55.820;37.574;2023-02-14T07:22:52;3.45;;;2.17;;
75446;SDS011;64024;55.820;37.574;2023-02-14T07:25:19;3.33;;;1.90;;
75446;SDS011;64024;55.820;37.574;2023-02-14T07:27:44;4.20;;;2.40;;
75446;SDS011;64024;55.820;37.574;2023-02-14T07:30:10;3.30;;;1.80;;
75446;SDS011;64024;55.820;37.574;2023-02-14T07:32:36;4.28;;;2.30;;
75446;SDS011;64024;55.820;37.574;2023-02-14T07:35:03;2.65;;;1.55;;
75446;SDS011;64024;55.820;37.574;2023-02-14T07:37:30;2.53;;;1.90;;
75446;SDS011;64024;55.820;37.574;2023-02-14T07:39:56;2.90;;;1.85;;
75446;SDS011;64024;55.820;37.574;2023-02-14T07:42:22;2.75;;;1.73;;
75446;SDS011;64024;55.820;37.574;2023-02-14T07:44:47;3.13;;;2.33;;
75446;SDS011;64024;55.820;37.574;2023-02-14T07:47:13;3.42;;;1.98;;
75446;SDS011;64024;55.820;37.574;2023-02-14T07:49:38;2.53;;;1.67;;
75446;SDS011;64024;55.820;37.574;2023-02-14T07:52:04;2.35;;;1.70;;
75446;SDS011;64024;55.820;37.574;2023-02-14T07:54:29;3.15;;;1.52;;
75446;SDS011;64024;55.820;37.574;2023-02-14T07:56:55;3.70;;;1.85;;
75446;SDS011;64024;55.820;37.574;2023-02-14T07:59:21;3.10;;;1.65;;
75446;SDS011;64024;55.820;37.574;2023-02-14T08:01:47;2.38;;;1.83;;
75446;SDS011;64024;55.820;37.574;2023-02-14T08:04:12;2.90;;;2.30;;
75446;SDS011;64024;55.820;37.574;2023-02-14T08:06:41;3.70;;;1.70;;
75446;SDS011;64024;55.820;37.574;2023-02-14T08:09:07;2.03;;;1.55;;
75446;SDS011;64024;55.820;37.574;2023-02-14T08:11:48;3.30;;;2.05;;
75446;SDS011;64024;55.820;37.574;2023-02-14T08:14:42;4.78;;;2.40;;
75446;SDS011;64024;55.820;37.574;2023-02-14T08:17:08;2.47;;;1.90;;
75446;SDS011;64024;55.820;37.574;2023-02-14T08:19:35;3.30;;;2.38;;
75446;SDS011;64024;55.820;37.574;2023-02-14T08:22:01;4.40;;;2.58;;
75446;SDS011;64024;55.820;37.574;2023-02-14T08:24:28;6.10;;;3.40;;
75446;SDS011;64024;55.820;37.574;2023-02-14T08:26:53;3.33;;;2.35;;
75446;SDS011;64024;55.820;37.574;2023-02-14T08:29:19;3.65;;;3.10;;
75446;SDS011;64024;55.820;37.574;2023-02-14T08:31:44;3.35;;;2.75;;
75446;SDS011;64024;55.820;37.574;2023-02-14T08:34:11;4.25;;;3.85;;
75446;SDS011;64024;55.820;37.574;2023-02-14T08:36:38;3.13;;;2.47;;
75446;SDS011;64024;55.820;37.574;2023-02-14T08:39:04;4.53;;;3.55;;
75446;SDS011;64024;55.820;37.574;2023-02-14T08:41:31;4.32;;;3.20;;
75446;SDS011;64024;55.820;37.574;2023-02-14T08:43:57;3.78;;;3.25;;
75446;SDS011;64024;55.820;37.574;2023-02-14T08:46:23;6.05;;;3.83;;
75446;SDS011;64024;55.820;37.574;2023-02-14T08:48:48;4.32;;;3.42;;
75446;SDS011;64024;55.820;37.574;2023-02-14T08:51:14;3.42;;;3.13;;
75446;SDS011;64024;55.820;37.574;2023-02-14T08:53:41;3.38;;;3.08;;
75446;SDS011;64024;55.820;37.574;2023-02-14T08:56:10;3.60;;;2.60;;
75446;SDS011;64024;55.820;37.574;2023-02-14T08:58:37;2.55;;;1.90;;
75446;SDS011;64024;55.820;37.574;2023-02-14T09:01:10;4.20;;;3.08;;
75446;SDS011;64024;55.820;37.574;2023-02-14T09:03:37;4.78;;;3.47;;
75446;SDS011;64024;55.820;37.574;2023-02-14T09:06:05;2.95;;;2.25;;
75446;SDS011;64024;55.820;37.574;2023-02-14T09:08:32;2.97;;;2.38;;
75446;SDS011;64024;55.820;37.574;2023-02-14T09:11:05;2.95;;;2.35;;
75446;SDS011;64024;55.820;37.574;2023-02-14T09:13:38;3.78;;;2.58;;
75446;SDS011;64024;55.820;37.574;2023-02-14T09:16:05;3.00;;;2.30;;
75446;SDS011;64024;55.820;37.574;2023-02-14T09:18:32;3.63;;;2.55;;
75446;SDS011;64024;55.820;37.574;2023-02-14T09:20:58;2.78;;;2.25;;
75446;SDS011;64024;55.820;37.574;2023-02-14T09:23:24;2.90;;;2.47;;
75446;SDS011;64024;55.820;37.574;2023-02-14T09:25:49;2.55;;;2.10;;
75446;SDS011;64024;55.820;37.574;2023-02-14T09:28:15;4.07;;;2.22;;
75446;SDS011;64024;55.820;37.574;2023-02-14T09:30:42;2.80;;;1.95;;
75446;SDS011;64024;55.820;37.574;2023-02-14T09:33:08;3.00;;;2.60;;
75446;SDS011;64024;55.820;37.574;2023-02-14T09:35:34;3.35;;;2.63;;
75446;SDS011;64024;55.820;37.574;2023-02-14T09:37:59;2.63;;;2.33;;
75446;SDS011;64024;55.820;37.574;2023-02-14T09:40:25;5.40;;;3.30;;
75446;SDS011;64024;55.820;37.574;2023-02-14T09:42:55;3.33;;;2.50;;
75446;SDS011;64024;55.820;37.574;2023-02-14T09:45:41;3.45;;;2.83;;
75446;SDS011;64024;55.820;37.574;2023-02-14T09:50:55;3.08;;;2.22;;
75446;SDS011;64024;55.820;37.574;2023-02-14T09:53:25;2.65;;;1.92;;
75446;SDS011;64024;55.820;37.574;2023-02-14T09:56:05;2.75;;;2.22;;
75446;SDS011;64024;55.820;37.574;2023-02-14T10:15:47;4.65;;;4.07;;
75446;SDS011;64024;55.820;37.574;2023-02-14T10:21:19;5.95;;;4.97;;
75446;SDS011;64024;55.820;37.574;2023-02-14T10:23:52;5.68;;;3.83;;
75446;SDS011;64024;55.820;37.574;2023-02-14T10:26:24;4.25;;;3.55;;
75446;SDS011;64024;55.820;37.574;2023-02-14T10:28:55;3.92;;;3.55;;
75446;SDS011;64024;55.820;37.574;2023-02-14T10:31:22;3.60;;;3.03;;
75446;SDS011;64024;55.820;37.574;2023-02-14T10:33:54;4.20;;;2.88;;
75446;SDS011;64024;55.820;37.574;2023-02-14T10:47:19;3.92;;;2.70;;
75446;SDS011;64024;55.820;37.574;2023-02-14T10:53:19;3.30;;;3.00;;
75446;SDS011;64024;55.820;37.574;2023-02-14T10:55:55;3.05;;;2.45;;
75446;SDS011;64024;55.820;37.574;2023-02-14T10:58:22;4.22;;;2.95;;
75446;SDS011;64024;55.820;37.574;2023-02-14T11:00:59;2.92;;;2.60;;
75446;SDS011;64024;55.820;37.574;2023-02-14T11:03:30;3.70;;;3.00;;
75446;SDS011;64024;55.820;37.574;2023-02-14T11:05:58;3.50;;;2.60;;
75446;SDS011;64024;55.820;37.574;2023-02-14T11:08:25;4.05;;;2.17;;
75446;SDS011;64024;55.820;37.574;2023-02-14T11:11:21;3.38;;;2.60;;
75446;SDS011;64024;55.820;37.574;2023-02-14T11:13:47;3.00;;;2.55;;
75446;SDS011;64024;55.820;37.574;2023-02-14T11:16:34;5.82;;;4.20;;
75446;SDS011;64024;55.820;37.574;2023-02-14T11:21:44;3.28;;;2.08;;
75446;SDS011;64024;55.820;37.574;2023-02-14T11:24:28;2.88;;;2.42;;
75446;SDS011;64024;55.820;37.574;2023-02-14T11:26:54;3.40;;;2.65;;
75446;SDS011;64024;55.820;37.574;2023-02-14T11:29:45;3.22;;;2.10;;
75446;SDS011;64024;55.820;37.574;2023-02-14T11:32:19;2.83;;;2.50;;
75446;SDS011;64024;55.820;37.574;2023-02-14T11:35:04;2.42;;;2.20;;
75446;SDS011;64024;55.820;37.574;2023-02-14T11:37:37;2.58;;;1.95;;
75446;SDS011;64024;55.820;37.574;2023-02-14T11:40:24;3.22;;;2.33;;
75446;SDS011;64024;55.820;37.574;2023-02-14T11:42:51;3.17;;;2.42;;
75446;SDS011;64024;55.820;37.574;2023-02-14T11:48:11;2.55;;;1.95;;
75446;SDS011;64024;55.820;37.574;2023-02-14T11:50:39;2.90;;;2.50;;
75446;SDS011;64024;55.820;37.574;2023-02-14T11:55:35;2.70;;;1.90;;
75446;SDS011;64024;55.820;37.574;2023-02-14T11:58:02;2.30;;;2.10;;
75446;SDS011;64024;55.820;37.574;2023-02-14T12:00:30;3.00;;;2.70;;
75446;SDS011;64024;55.820;37.574;2023-02-14T12:02:57;2.70;;;2.38;;
75446;SDS011;64024;55.820;37.574;2023-02-14T12:05:27;2.63;;;2.33;;
75446;SDS011;64024;55.820;37.574;2023-02-14T12:07:55;2.33;;;1.88;;
75446;SDS011;64024;55.820;37.574;2023-02-14T12:10:27;2.92;;;2.60;;
75446;SDS011;64024;55.820;37.574;2023-02-14T12:12:55;2.63;;;2.00;;
75446;SDS011;64024;55.820;37.574;2023-02-14T12:15:54;3.20;;;2.10;;
75446;SDS011;64024;55.820;37.574;2023-02-14T12:18:34;3.00;;;2.33;;
75446;SDS011;64024;55.820;37.574;2023-02-14T12:31:35;2.80;;;2.13;;
75446;SDS011;64024;55.820;37.574;2023-02-14T12:34:01;2.42;;;1.83;;
75446;SDS011;64024;55.820;37.574;2023-02-14T12:36:33;3.50;;;2.20;;
75446;SDS011;64024;55.820;37.574;2023-02-14T12:42:02;4.97;;;3.30;;
75446;SDS011;64024;55.820;37.574;2023-02-14T12:53:05;3.05;;;2.00;;
75446;SDS011;64024;55.820;37.574;2023-02-14T13:06:56;2.97;;;1.90;;
75446;SDS011;64024;55.820;37.574;2023-02-14T13:12:32;2.45;;;2.25;;
75446;SDS011;64024;55.820;37.574;2023-02-14T13:15:09;3.10;;;1.45;;
75446;SDS011;64024;55.820;37.574;2023-02-14T13:18:13;2.42;;;1.70;;
75446;SDS011;64024;55.820;37.574;2023-02-14T13:20:51;6.97;;;2.78;;
75446;SDS011;64024;55.820;37.574;2023-02-14T13:31:35;2.45;;;2.08;;
75446;SDS011;64024;55.820;37.574;2023-02-14T13:39:24;2.65;;;2.28;;
75446;SDS011;64024;55.820;37.574;2023-02-14T13:42:03;3.85;;;2.42;;
75446;SDS011;64024;55.820;37.574;2023-02-14T13:44:42;4.75;;;2.13;;
75446;SDS011;64024;55.820;37.574;2023-02-14T13:47:26;4.43;;;2.28;;
75446;SDS011;64024;55.820;37.574;2023-02-14T13:50:01;3.25;;;2.20;;
75446;SDS011;64024;55.820;37.574;2023-02-14T13:52:42;3.08;;;1.98;;
75446;SDS011;64024;55.820;37.574;2023-02-14T13:55:15;2.72;;;2.22;;
75446;SDS011;64024;55.820;37.574;2023-02-14T13:57:44;3.10;;;2.22;;
75446;SDS011;64024;55.820;37.574;2023-02-14T14:02:44;3.17;;;2.03;;
75446;SDS011;64024;55.820;37.574;2023-02-14T14:18:52;5.15;;;2.55;;
75446;SDS011;64024;55.820;37.574;2023-02-14T14:21:24;2.67;;;2.28;;
75446;SDS011;64024;55.820;37.574;2023-02-14T14:29:26;3.13;;;2.65;;
75446;SDS011;64024;55.820;37.574;2023-02-14T14:31:55;2.50;;;2.22;;
75446;SDS011;64024;55.820;37.574;2023-02-14T14:34:23;2.65;;;2.30;;
75446;SDS011;64024;55.820;37.574;2023-02-14T14:37:04;2.25;;;2.03;;
75446;SDS011;64024;55.820;37.574;2023-02-14T14:39:32;3.05;;;2.33;;
75446;SDS011;64024;55.820;37.574;2023-02-14T14:42:33;2.60;;;2.20;;
75446;SDS011;64024;55.820;37.574;2023-02-14T14:44:57;2.85;;;2.17;;
75446;SDS011;64024;55.820;37.574;2023-02-14T14:47:33;3.50;;;2.60;;
75446;SDS011;64024;55.820;37.574;2023-02-14T14:50:07;3.20;;;2.00;;
75446;SDS011;64024;55.820;37.574;2023-02-14T14:52:52;2.30;;;2.05;;
75446;SDS011;64024;55.820;37.574;2023-02-14T14:57:51;3.05;;;2.50;;
75446;SDS011;64024;55.820;37.574;2023-02-14T15:02:57;3.85;;;2.50;;
75446;SDS011;64024;55.820;37.574;2023-02-14T15:07:56;2.95;;;2.53;;
75446;SDS011;64024;55.820;37.574;2023-02-14T15:10:26;2.90;;;2.50;;
75446;SDS011;64024;55.820;37.574;2023-02-14T15:12:55;3.63;;;2.97;;
75446;SDS011;64024;55.820;37.574;2023-02-14T15:15:45;2.35;;;2.00;;
75446;SDS011;64024;55.820;37.574;2023-02-14T15:18:13;2.10;;;1.88;;
75446;SDS011;64024;55.820;37.574;2023-02-14T15:20:39;3.10;;;2.03;;
75446;SDS011;64024;55.820;37.574;2023-02-14T15:23:06;3.05;;;2.03;;
75446;SDS011;64024;55.820;37.574;2023-02-14T15:25:40;3.53;;;2.90;;
75446;SDS011;64024;55.820;37.574;2023-02-14T15:28:11;3.15;;;2.70;;
75446;SDS011;64024;55.820;37.574;2023-02-14T15:30:41;3.80;;;2.38;;
75446;SDS011;64024;55.820;37.574;2023-02-14T15:33:08;2.72;;;2.20;;
75446;SDS011;64024;55.820;37.574;2023-02-14T15:35:35;3.33;;;2.35;;
75446;SDS011;64024;55.820;37.574;2023-02-14T15:38:06;3.83;;;2.90;;
75446;SDS011;64024;55.820;37.574;2023-02-14T15:40:35;5.95;;;2.42;;
75446;SDS011;64024;55.820;37.574;2023-02-14T15:43:20;4.10;;;2.15;;
75446;SDS011;64024;55.820;37.574;2023-02-14T15:45:55;3.42;;;2.20;;
75446;SDS011;64024;55.820;37.574;2023-02-14T15:48:39;3.90;;;3.03;;
75446;SDS011;64024;55.820;37.574;2023-02-14T15:51:05;5.85;;;3.17;;
75446;SDS011;64024;55.820;37.574;2023-02-14T15:53:39;3.25;;;2.45;;
75446;SDS011;64024;55.820;37.574;2023-02-14T15:59:06;3.50;;;2.63;;
75446;SDS011;64024;55.820;37.574;2023-02-14T16:01:43;3.65;;;2.85;;
75446;SDS011;64024;55.820;37.574;2023-02-14T16:04:21;5.38;;;3.72;;
75446;SDS011;64024;55.820;37.574;2023-02-14T16:07:06;5.38;;;3.08;;
75446;SDS011;64024;55.820;37.574;2023-02-14T16:09:44;7.10;;;5.57;;
75446;SDS011;64024;55.820;37.574;2023-02-14T16:12:24;4.55;;;3.72;;
75446;SDS011;64024;55.820;37.574;2023-02-14T16:15:07;3.30;;;2.88;;
75446;SDS011;64024;55.820;37.574;2023-02-14T16:17:41;3.15;;;2.08;;
75446;SDS011;64024;55.820;37.574;2023-02-14T16:20:27;2.50;;;2.20;;
75446;SDS011;64024;55.820;37.574;2023-02-14T16:23:19;3.22;;;2.22;;
75446;SDS011;64024;55.820;37.574;2023-02-14T16:25:50;3.30;;;2.03;;
75446;SDS011;64024;55.820;37.574;2023-02-14T16:28:16;2.30;;;2.10;;
75446;SDS011;64024;55.820;37.574;2023-02-14T16:30:43;2.75;;;2.45;;
75446;SDS011;64024;55.820;37.574;2023-02-14T16:33:29;3.22;;;2.00;;
75446;SDS011;64024;55.820;37.574;2023-02-14T16:36:06;3.25;;;2.15;;
75446;SDS011;64024;55.820;37.574;2023-02-14T16:38:41;3.40;;;2.10;;
75446;SDS011;64024;55.820;37.574;2023-02-14T16:41:12;3.03;;;2.30;;
75446;SDS011;64024;55.820;37.574;2023-02-14T16:43:41;2.78;;;2.15;;
75446;SDS011;64024;55.820;37.574;2023-02-14T16:46:09;4.40;;;2.42;;
75446;SDS011;64024;55.820;37.574;2023-02-14T16:48:37;3.25;;;2.03;;
75446;SDS011;64024;55.820;37.574;2023-02-14T16:51:02;2.63;;;2.10;;
75446;SDS011;64024;55.820;37.574;2023-02-14T16:53:28;3.08;;;2.30;;
75446;SDS011;64024;55.820;37.574;2023-02-14T16:55:54;3.55;;;2.17;;
75446;SDS011;64024;55.820;37.574;2023-02-14T16:58:22;2.80;;;2.13;;
75446;SDS011;64024;55.820;37.574;2023-02-14T17:00:52;3.28;;;2.40;;
75446;SDS011;64024;55.820;37.574;2023-02-14T17:03:18;2.40;;;2.00;;
75446;SDS011;64024;55.820;37.574;2023-02-14T17:05:43;2.30;;;2.00;;
75446;SDS011;64024;55.820;37.574;2023-02-14T17:08:10;2.78;;;2.03;;
75446;SDS011;64024;55.820;37.574;2023-02-14T17:13:03;3.20;;;1.83;;
75446;SDS011;64024;55.820;37.574;2023-02-14T17:15:30;2.05;;;1.55;;
75446;SDS011;64024;55.820;37.574;2023-02-14T17:18:00;4.32;;;2.40;;
75446;SDS011;64024;55.820;37.574;2023-02-14T17:20:30;3.22;;;2.00;;
75446;SDS011;64024;55.820;37.574;2023-02-14T17:22:56;2.80;;;1.75;;
75446;SDS011;64024;55.820;37.574;2023-02-14T17:25:22;2.65;;;1.95;;
75446;SDS011;64024;55.820;37.574;2023-02-14T17:27:47;2.15;;;1.67;;
75446;SDS011;64024;55.820;37.574;2023-02-14T17:30:13;2.20;;;1.48;;
75446;SDS011;64024;55.820;37.574;2023-02-14T17:32:40;2.53;;;1.85;;
75446;SDS011;64024;55.820;37.574;2023-02-14T17:35:06;3.53;;;2.15;;
75446;SDS011;64024;55.820;37.574;2023-02-14T17:37:33;2.40;;;1.83;;
75446;SDS011;64024;55.820;37.574;2023-02-14T17:40:02;3.05;;;1.73;;
75446;SDS011;64024;55.820;37.574;2023-02-14T17:42:32;2.53;;;1.70;;
75446;SDS011;64024;55.820;37.574;2023-02-14T17:44:58;3.22;;;2.05;;